createdAt,value
2023-04-11T00:00:14.589Z,68173.84
2023-04-11T00:02:41.908Z,68156.50
2023-04-11T00:05:09.930Z,68160.09
2023-04-11T00:07:36.879Z,68163.84
2023-04-11T00:10:07.177Z,68168.19
2023-04-11T00:12:34.254Z,68169.50
2023-04-11T00:15:01.431Z,68178.56
2023-04-11T00:17:31.372Z,68189.69
2023-04-11T00:20:01.713Z,68191.97
2023-04-11T00:22:30.656Z,68187.06
2023-04-11T00:24:58.068Z,68209.53
2023-04-11T00:27:25.405Z,68209.16
2023-04-11T00:29:57.676Z,68207.25
2023-04-11T00:32:25.150Z,68205.75
2023-04-11T00:34:52.269Z,68203.50
2023-04-11T00:37:21.553Z,68208.41
2023-04-11T00:39:50.594Z,68207.47
2023-04-11T00:42:17.760Z,68206.91
2023-04-11T00:44:46.048Z,68212.91
2023-04-11T00:47:14.244Z,68214.63
2023-04-11T00:49:44.506Z,68217.81
2023-04-11T00:52:13.729Z,68218.78
2023-04-11T00:54:41.144Z,68213.13
2023-04-11T00:57:11.192Z,68222.16
2023-04-11T00:59:38.550Z,68213.13
2023-04-11T01:02:06.044Z,68207.25
2023-04-11T01:04:33.778Z,68205.19
2023-04-11T01:07:06.095Z,68208.97
2023-04-11T01:09:35.783Z,68213.69
2023-04-11T01:12:04.312Z,68216.88
2023-04-11T01:14:31.665Z,68223.88
2023-04-11T01:17:02.384Z,68210.66
2023-04-11T01:19:30.458Z,68202.72
2023-04-11T01:21:59.147Z,68205.75
2023-04-11T01:24:26.624Z,68206.31
2023-04-11T01:26:54.358Z,68206.50
2023-04-11T01:29:21.661Z,68198.22
2023-04-11T01:31:50.366Z,68189.16
2023-04-11T01:34:18.425Z,68186.88
2023-04-11T01:36:45.626Z,68181.41
2023-04-11T01:39:14.339Z,68177.81
2023-04-11T01:41:42.556Z,68188.75
2023-04-11T01:44:10.045Z,68192.53
2023-04-11T01:46:39.136Z,68196.13
2023-04-11T01:49:07.112Z,68213.31
2023-04-11T01:51:34.616Z,68212.38
2023-04-11T01:54:01.862Z,68218.59
2023-04-11T01:56:28.982Z,68207.84
2023-04-11T01:58:59.434Z,68191.97
2023-04-11T02:01:27.982Z,68182.53
2023-04-11T02:03:55.592Z,68192.72
2023-04-11T02:06:22.752Z,68185.94
2023-04-11T02:08:51.427Z,68181.03
2023-04-11T02:11:18.772Z,68185.75
2023-04-11T02:13:49.915Z,68178.56
2023-04-11T02:16:18.144Z,68179.69
2023-04-11T02:18:45.865Z,68189.16
2023-04-11T02:21:13.743Z,68198.78
2023-04-11T02:23:41.270Z,68200.09
2023-04-11T02:26:08.498Z,68206.13
2023-04-11T02:28:36.647Z,68206.13
2023-04-11T02:31:04.101Z,68200.28
2023-04-11T02:33:31.429Z,68194.25
2023-04-11T02:35:58.687Z,68198.00
2023-04-11T02:38:26.135Z,68195.56
2023-04-11T02:40:53.249Z,68198.94
2023-04-11T02:43:20.536Z,68199.72
2023-04-11T02:45:47.999Z,68199.31
2023-04-11T02:48:15.521Z,68197.06
2023-04-11T02:50:45.765Z,68193.50
2023-04-11T02:53:13.079Z,68199.31
2023-04-11T02:55:47.716Z,68198.22
2023-04-11T02:58:19.349Z,68195.94
2023-04-11T03:00:51.532Z,68190.63
2023-04-11T03:03:19.288Z,68189.91
2023-04-11T03:05:49.646Z,68188.38
2023-04-11T03:08:22.234Z,68184.25
2023-04-11T03:10:53.013Z,68191.78
2023-04-11T03:13:23.305Z,68188.75
2023-04-11T03:15:56.105Z,68191.22
2023-04-11T03:18:26.822Z,68189.16
2023-04-11T03:20:57.522Z,68188.75
2023-04-11T03:23:24.875Z,68195.38
2023-04-11T03:25:54.246Z,68192.53
2023-04-11T03:28:26.707Z,68192.94
2023-04-11T03:30:54.814Z,68188.59
2023-04-11T03:33:24.265Z,68190.09
2023-04-11T03:35:52.047Z,68185.75
2023-04-11T03:38:21.062Z,68178.56
2023-04-11T03:40:48.652Z,68184.41
2023-04-11T03:43:22.787Z,68177.81
2023-04-11T03:45:51.912Z,68175.34
2023-04-11T03:48:48.853Z,68173.28
2023-04-11T03:51:21.021Z,68176.31
2023-04-11T03:54:03.714Z,68175.94
2023-04-11T03:56:35.868Z,68170.44
2023-04-11T03:59:12.190Z,68168.19
2023-04-11T04:01:54.174Z,68164.22
2023-04-11T04:04:21.782Z,68163.09
2023-04-11T04:06:57.718Z,68154.81
2023-04-11T04:09:35.742Z,68144.81
2023-04-11T04:12:04.348Z,68144.81
2023-04-11T04:14:46.812Z,68142.72
2023-04-11T04:17:19.333Z,68147.81
2023-04-11T04:19:46.824Z,68148.38
2023-04-11T04:22:17.758Z,68138.59
2023-04-11T04:24:52.213Z,68141.56
2023-04-11T04:27:26.559Z,68141.56
2023-04-11T04:29:59.699Z,68136.13
2023-04-11T04:32:38.670Z,68119.13
2023-04-11T04:35:16.012Z,68112.13
2023-04-11T04:37:45.995Z,68107.59
2023-04-11T04:40:39.328Z,68108.91
2023-04-11T04:43:11.959Z,68096.47
2023-04-11T04:46:00.554Z,68081.38
2023-04-11T04:48:34.715Z,68064.97
2023-04-11T04:51:08.002Z,68065.72
2023-04-11T04:53:44.337Z,68047.06
2023-04-11T04:56:12.463Z,68023.31
2023-04-11T04:58:42.432Z,68009.16
2023-04-11T05:01:14.262Z,68006.34
2023-04-11T05:03:43.959Z,68002.38
2023-04-11T05:06:18.763Z,67995.97
2023-04-11T05:08:50.440Z,67990.72
2023-04-11T05:11:18.068Z,67974.31
2023-04-11T05:13:47.666Z,67977.69
2023-04-11T05:16:18.100Z,67994.66
2023-04-11T05:18:47.530Z,68008.59
2023-04-11T05:21:15.902Z,68010.50
2023-04-11T05:23:46.247Z,68005.97
2023-04-11T05:26:13.891Z,67994.66
2023-04-11T05:28:44.616Z,67995.03
2023-04-11T05:31:17.008Z,67994.09
2023-04-11T05:33:45.111Z,67998.22
2023-04-11T05:36:14.395Z,68002.97
2023-04-11T05:38:42.776Z,68006.34
2023-04-11T05:41:11.311Z,68008.81
2023-04-11T05:43:42.241Z,68019.34
2023-04-11T05:46:13.053Z,68026.31
2023-04-11T05:48:45.029Z,68029.16
2023-04-11T05:51:15.618Z,68037.25
2023-04-11T05:53:44.238Z,68008.81
2023-04-11T05:56:13.104Z,68017.84
2023-04-11T05:58:46.085Z,68012.91
2023-04-11T06:01:18.211Z,68016.53
2023-04-11T06:03:46.899Z,68007.31
2023-04-11T06:06:14.597Z,68024.25
2023-04-11T06:08:42.922Z,68027.06
2023-04-11T06:11:11.673Z,68005.78
2023-04-11T06:13:39.021Z,67991.84
2023-04-11T06:16:08.185Z,67984.13
2023-04-11T06:18:37.694Z,67999.94
2023-04-11T06:21:09.363Z,67998.41
2023-04-11T06:23:41.020Z,67990.72
2023-04-11T06:28:53.164Z,68008.59
2023-04-11T06:31:20.635Z,68010.88
2023-04-11T06:33:50.824Z,67998.03
2023-04-11T06:36:22.100Z,67995.22
2023-04-11T06:38:49.428Z,68005.41
2023-04-11T06:41:17.205Z,68010.50
2023-04-11T06:43:44.565Z,68028.97
2023-04-11T06:46:15.808Z,68017.66
2023-04-11T06:48:46.406Z,68014.84
2023-04-11T06:51:16.520Z,68006.34
2023-04-11T06:53:48.092Z,68001.63
2023-04-11T06:56:15.656Z,68001.25
2023-04-11T06:58:43.272Z,67991.66
2023-04-11T07:01:11.437Z,67993.50
2023-04-11T07:03:38.863Z,67979.78
2023-04-11T07:06:10.524Z,67975.06
2023-04-11T07:08:38.294Z,67962.44
2023-04-11T07:11:06.159Z,67965.81
2023-04-11T07:13:34.088Z,67956.59
2023-04-11T07:16:01.560Z,67952.28
2023-04-11T07:18:29.428Z,67956.59
2023-04-11T07:20:56.428Z,67956.59
2023-04-11T07:23:24.247Z,67958.09
2023-04-11T07:25:53.940Z,67957.72
2023-04-11T07:28:21.705Z,67954.53
2023-04-11T07:30:48.846Z,67965.06
2023-04-11T07:33:15.758Z,67968.47
2023-04-11T07:35:42.896Z,67972.41
2023-04-11T07:38:10.602Z,67970.91
2023-04-11T07:40:37.482Z,67981.81
2023-04-11T07:43:04.492Z,67986.56
2023-04-11T07:45:33.363Z,67990.50
2023-04-11T07:48:01.978Z,67983.34
2023-04-11T07:50:28.958Z,67981.28
2023-04-11T07:52:56.757Z,67996.72
2023-04-11T07:55:23.851Z,68005.78
2023-04-11T07:57:51.082Z,68011.44
2023-04-11T08:00:22.280Z,68017.84
2023-04-11T08:02:52.418Z,68023.31
2023-04-11T08:05:26.839Z,68030.09
2023-04-11T08:07:57.268Z,68032.72
2023-04-11T08:10:33.278Z,68036.31
2023-04-11T08:13:05.667Z,68066.69
2023-04-11T08:15:34.836Z,68084.22
2023-04-11T08:18:02.839Z,68115.16
2023-04-11T08:20:29.774Z,68112.69
2023-04-11T08:22:57.069Z,68108.72
2023-04-11T08:25:24.619Z,68104.78
2023-04-11T08:27:52.611Z,68086.09
2023-04-11T08:30:20.276Z,68072.91
2023-04-11T08:32:47.694Z,68073.47
2023-04-11T08:35:14.706Z,68080.84
2023-04-11T08:37:41.666Z,68093.84
2023-04-11T08:40:09.139Z,68080.44
2023-04-11T08:42:38.751Z,68083.47
2023-04-11T08:45:08.419Z,68075.91
2023-04-11T08:47:38.135Z,68074.03
2023-04-11T08:50:05.927Z,68067.63
2023-04-11T08:52:33.549Z,68072.53
2023-04-11T08:55:00.626Z,68060.63
2023-04-11T08:57:28.438Z,68061.59
2023-04-11T08:59:56.000Z,68061.41
2023-04-11T09:02:23.117Z,68045.75
2023-04-11T09:04:50.223Z,68048.75
2023-04-11T09:07:17.188Z,68045.94
2023-04-11T09:09:44.260Z,68037.28
2023-04-11T09:12:11.802Z,68037.09
2023-04-11T09:14:39.318Z,68043.69
2023-04-11T09:17:13.685Z,68039.53
2023-04-11T09:19:42.034Z,68038.56
2023-04-11T09:22:09.038Z,68047.63
2023-04-11T09:24:41.294Z,68039.72
2023-04-11T09:27:24.298Z,68051.97
2023-04-11T09:29:51.441Z,68095.16
2023-04-11T09:32:27.166Z,68123.66
2023-04-11T09:35:15.493Z,68138.00
2023-04-11T09:37:45.070Z,68137.25
2023-04-11T09:40:13.171Z,68154.22
2023-04-11T09:42:42.929Z,68147.63
2023-04-11T09:45:19.685Z,68157.25
2023-04-11T09:47:47.821Z,68193.66
2023-04-11T09:50:16.176Z,68209.91
2023-04-11T09:52:46.366Z,68230.69
2023-04-11T09:55:14.603Z,68248.41
2023-04-11T09:57:45.827Z,68234.81
2023-04-11T10:00:21.629Z,68236.34
2023-04-11T10:02:50.326Z,68237.47
2023-04-11T10:05:18.201Z,68222.16
2023-04-11T10:07:45.057Z,68225.19
2023-04-11T10:10:22.703Z,68220.50
2023-04-11T10:12:50.484Z,68234.66
2023-04-11T10:15:20.287Z,68235.03
2023-04-11T10:18:07.466Z,68253.91
2023-04-11T10:20:44.593Z,68290.16
2023-04-11T10:23:12.685Z,68296.78
2023-04-11T10:25:52.001Z,68321.53
2023-04-11T10:28:48.201Z,68376.53
2023-04-11T10:31:17.571Z,68424.72
2023-04-11T10:34:03.567Z,68471.84
2023-04-11T10:36:50.424Z,68493.19
2023-04-11T10:39:37.364Z,68548.44
2023-04-11T10:42:27.042Z,68539.56
2023-04-11T10:45:12.778Z,68477.50
2023-04-11T10:47:40.030Z,68403.75
2023-04-11T10:50:26.914Z,68380.88
2023-04-11T10:52:55.141Z,68285.06
2023-04-11T10:55:28.971Z,68018.78
2023-04-11T10:58:16.724Z,67850.69
2023-04-11T11:00:46.751Z,67797.25
2023-04-11T11:03:15.127Z,67789.53
2023-04-11T11:05:42.380Z,67787.09
2023-04-11T11:08:09.269Z,67790.13
2023-04-11T11:10:39.723Z,67761.09
2023-04-11T11:13:06.873Z,67826.41
2023-04-11T11:15:37.975Z,67864.88
2023-04-11T11:18:11.470Z,67917.78
2023-04-11T11:20:44.396Z,67977.50
2023-04-11T11:23:12.009Z,68025.00
2023-04-11T11:25:55.138Z,68088.38
2023-04-11T11:28:24.305Z,68150.47
2023-04-11T11:31:04.079Z,68084.59
2023-04-11T11:33:33.374Z,67980.53
2023-04-11T11:36:04.241Z,67880.28
2023-04-11T11:38:33.521Z,67811.56
2023-04-11T11:41:03.829Z,67794.22
2023-04-11T11:43:36.838Z,67775.59
2023-04-11T11:46:14.799Z,67766.75
2023-04-11T11:49:00.914Z,67770.72
2023-04-11T11:51:41.681Z,67765.47
2023-04-11T11:54:09.814Z,67777.13
2023-04-11T11:56:37.981Z,67750.19
2023-04-11T11:59:05.284Z,67813.44
2023-04-11T12:01:38.060Z,67832.63
2023-04-11T12:04:11.691Z,67858.81
2023-04-11T12:06:39.486Z,67898.94
2023-04-11T12:09:10.565Z,67933.06
2023-04-11T12:11:40.319Z,67997.84
2023-04-11T12:14:15.066Z,68046.88
2023-04-11T12:16:47.942Z,68107.03
2023-04-11T12:19:14.938Z,68165.19
2023-04-11T12:21:42.192Z,68190.47
2023-04-11T12:24:11.001Z,68206.91
2023-04-11T12:26:42.716Z,68207.84
2023-04-11T12:29:16.002Z,68189.91
2023-04-11T12:31:45.766Z,68220.28
2023-04-11T12:34:16.259Z,68213.13
2023-04-11T12:36:43.645Z,68174.41
2023-04-11T12:39:13.561Z,68127.63
2023-04-11T12:41:42.879Z,68175.00
2023-04-11T12:44:11.531Z,68165.00
2023-04-11T12:46:40.906Z,68185.94
2023-04-11T12:49:21.464Z,68215.38
2023-04-11T12:51:52.131Z,68182.91
2023-04-11T12:54:19.006Z,68162.53
2023-04-11T12:56:45.993Z,68146.13
2023-04-11T12:59:20.800Z,68133.66
2023-04-11T13:01:47.929Z,68148.56
2023-04-11T13:04:15.001Z,68157.06
2023-04-11T13:06:42.663Z,68150.81
2023-04-11T13:09:15.954Z,68156.88
2023-04-11T13:11:42.865Z,68149.31
2023-04-11T13:14:11.726Z,68136.50
2023-04-11T13:16:38.848Z,68146.69
2023-04-11T13:19:05.825Z,68188.38
2023-04-11T13:21:33.108Z,68203.88
2023-04-11T13:24:00.863Z,68218.22
2023-04-11T13:26:28.767Z,68212.53
2023-04-11T13:28:56.368Z,68212.53
2023-04-11T13:31:29.346Z,68257.09
2023-04-11T13:33:56.878Z,68251.06
2023-04-11T13:36:24.265Z,68246.91
2023-04-11T13:38:51.698Z,68195.56
2023-04-11T13:41:18.605Z,68124.97
2023-04-11T13:43:45.761Z,68127.06
2023-04-11T13:46:19.008Z,68165.94
2023-04-11T13:48:46.087Z,68163.09
2023-04-11T13:51:16.383Z,68159.88
2023-04-11T13:53:46.051Z,68142.91
2023-04-11T13:56:12.944Z,68127.63
2023-04-11T13:58:40.645Z,68081.00
2023-04-11T14:01:19.139Z,68069.53
2023-04-11T14:03:47.757Z,68094.78
2023-04-11T14:06:15.222Z,68104.22
2023-04-11T14:08:43.296Z,68116.84
2023-04-11T14:11:10.256Z,68149.50
2023-04-11T14:13:39.799Z,68193.88
2023-04-11T14:16:09.296Z,68250.88
2023-04-11T14:18:40.092Z,68251.81
2023-04-11T14:21:07.285Z,68280.72
2023-04-11T14:23:34.427Z,68304.34
2023-04-11T14:26:01.611Z,68275.44
2023-04-11T14:28:31.654Z,68325.88
2023-04-11T14:31:01.443Z,68382.00
2023-04-11T14:33:31.757Z,68382.19
2023-04-11T14:36:02.158Z,68318.50
2023-04-11T14:38:29.132Z,68266.56
2023-04-11T14:40:58.773Z,68176.69
2023-04-11T14:43:25.801Z,68145.53
2023-04-11T14:46:00.151Z,68111.38
2023-04-11T14:48:28.803Z,68084.97
2023-04-11T14:50:59.745Z,68073.84
2023-04-11T14:53:27.188Z,68050.28
2023-04-11T14:55:54.903Z,67993.97
2023-04-11T14:58:21.984Z,67992.19
2023-04-11T15:00:51.755Z,67967.31
2023-04-11T15:03:18.949Z,67954.31
2023-04-11T15:05:46.255Z,67943.59
2023-04-11T15:08:13.758Z,67952.63
2023-04-11T15:10:41.172Z,67937.00
2023-04-11T15:13:12.766Z,67936.25
2023-04-11T15:15:39.754Z,67940.00
2023-04-11T15:18:27.078Z,67951.50
2023-04-11T15:20:55.364Z,67969.97
2023-04-11T15:23:23.814Z,67959.41
2023-04-11T15:25:54.514Z,67963.19
2023-04-11T15:28:22.013Z,67968.09
2023-04-11T15:30:50.993Z,67983.72
2023-04-11T15:33:18.633Z,68006.53
2023-04-11T15:35:46.065Z,68015.19
2023-04-11T15:38:14.015Z,68038.97
2023-04-11T15:40:41.044Z,68074.03
2023-04-11T15:43:09.158Z,68106.84
2023-04-11T15:45:39.446Z,68114.00
2023-04-11T15:48:06.996Z,68100.81
2023-04-11T15:50:34.151Z,68085.72
2023-04-11T15:53:01.268Z,68089.50
2023-04-11T15:55:28.800Z,68087.81
2023-04-11T15:57:56.703Z,68072.91
2023-04-11T16:00:23.994Z,68079.88
2023-04-11T16:02:51.359Z,68074.59
2023-04-11T16:05:21.050Z,68058.94
2023-04-11T16:07:50.319Z,68051.00
2023-04-11T16:10:17.269Z,68058.94
2023-04-11T16:12:44.240Z,68061.97
2023-04-11T16:15:11.503Z,68068.00
2023-04-11T16:17:39.291Z,68086.84
2023-04-11T16:20:09.644Z,68104.78
2023-04-11T16:22:41.296Z,68104.38
2023-04-11T16:25:08.368Z,68112.34
2023-04-11T16:27:35.696Z,68123.47
2023-04-11T16:30:05.671Z,68117.41
2023-04-11T16:32:36.679Z,68114.00
2023-04-11T16:35:03.828Z,68106.28
2023-04-11T16:37:32.920Z,68113.06
2023-04-11T16:40:01.030Z,68105.91
2023-04-11T16:42:28.131Z,68086.28
2023-04-11T16:44:55.577Z,68089.31
2023-04-11T16:47:28.047Z,68083.47
2023-04-11T16:49:56.055Z,68103.44
2023-04-11T16:52:23.159Z,68119.91
2023-04-11T16:54:50.469Z,68131.00
2023-04-11T16:57:18.428Z,68133.09
2023-04-11T16:59:46.191Z,68107.22
2023-04-11T17:02:14.044Z,68091.56
2023-04-11T17:04:41.701Z,68074.97
2023-04-11T17:07:09.392Z,68077.44
2023-04-11T17:09:36.846Z,68073.66
2023-04-11T17:12:11.368Z,68066.88
2023-04-11T17:14:38.290Z,68070.25
2023-04-11T17:17:05.561Z,68063.84
2023-04-11T17:19:32.588Z,68046.50
2023-04-11T17:22:02.189Z,68043.47
2023-04-11T17:24:29.174Z,68026.88
2023-04-11T17:26:57.108Z,68015.38
2023-04-11T17:29:24.155Z,67986.75
2023-04-11T17:31:52.147Z,67966.22
2023-04-11T17:34:19.154Z,67956.38
2023-04-11T17:36:46.706Z,67938.13
2023-04-11T17:39:17.677Z,67930.78
2023-04-11T17:41:51.050Z,67916.09
2023-04-11T17:44:21.201Z,67909.13
2023-04-11T17:49:29.203Z,67903.28
2023-04-11T17:51:59.253Z,67903.63
2023-04-11T17:54:28.123Z,67902.31
2023-04-11T17:56:56.460Z,67891.78
2023-04-11T17:59:25.508Z,67889.13
2023-04-11T18:01:58.510Z,67888.75
2023-04-11T18:04:29.180Z,67890.47
2023-04-11T18:06:56.438Z,67905.16
2023-04-11T18:09:31.974Z,67855.97
2023-04-11T18:11:59.320Z,67888.75
2023-04-11T18:14:27.807Z,67885.38
2023-04-11T18:16:56.149Z,67904.19
2023-04-11T18:19:23.155Z,67899.50
2023-04-11T18:21:50.742Z,67900.84
2023-04-11T18:24:17.776Z,67923.44
2023-04-11T18:26:44.648Z,67960.56
2023-04-11T18:29:14.782Z,67942.44
2023-04-11T18:31:42.671Z,67927.78
2023-04-11T18:34:09.982Z,67916.09
2023-04-11T18:36:37.209Z,67902.91
2023-04-11T18:39:05.009Z,67903.66
2023-04-11T18:41:32.080Z,67903.28
2023-04-11T18:43:59.608Z,67900.06
2023-04-11T18:46:29.770Z,67904.22
2023-04-11T18:48:58.006Z,67892.16
2023-04-11T18:51:25.000Z,67838.88
2023-04-11T18:53:52.776Z,67789.53
2023-04-11T18:56:19.903Z,67755.47
2023-04-11T18:58:50.349Z,67730.44
2023-04-11T19:01:22.340Z,67718.00
2023-04-11T19:03:49.536Z,67707.50
2023-04-11T19:06:25.804Z,67705.06
2023-04-11T19:08:53.154Z,67708.63
2023-04-11T19:11:20.067Z,67709.56
2023-04-11T19:13:47.037Z,67699.22
2023-04-11T19:16:21.014Z,67695.28
2023-04-11T19:18:48.047Z,67704.69
2023-04-11T19:21:15.057Z,67706.75
2023-04-11T19:23:42.006Z,67656.97
2023-04-11T19:26:09.541Z,67660.31
2023-04-11T19:28:36.591Z,67704.69
2023-04-11T19:31:03.499Z,67707.50
2023-04-11T19:33:30.641Z,67693.75
2023-04-11T19:35:57.668Z,67682.13
2023-04-11T19:38:24.678Z,67675.69
2023-04-11T19:40:51.622Z,67664.06
2023-04-11T19:43:19.913Z,67655.59
2023-04-11T19:45:46.924Z,67648.63
2023-04-11T19:48:14.434Z,67643.75
2023-04-11T19:50:41.717Z,67593.25
2023-04-11T19:53:11.650Z,67642.97
2023-04-11T19:55:41.267Z,67640.59
2023-04-11T19:58:08.330Z,67649.22
2023-04-11T20:00:38.154Z,67636.06
2023-04-11T20:03:07.850Z,67625.72
2023-04-11T20:05:36.224Z,67629.09
2023-04-11T20:08:03.236Z,67568.81
2023-04-11T20:10:30.725Z,67554.94
2023-04-11T20:12:57.943Z,67603.16
2023-04-11T20:15:28.059Z,67598.66
2023-04-11T20:17:56.238Z,67547.03
2023-04-11T20:20:28.087Z,67583.78
2023-04-11T20:22:56.208Z,67572.72
2023-04-11T20:25:26.083Z,67558.81
2023-04-11T20:27:53.298Z,67562.78
2023-04-11T20:30:21.058Z,67565.97
2023-04-11T20:32:50.807Z,67563.13
2023-04-11T20:35:19.291Z,67565.41
2023-04-11T20:37:47.211Z,67568.56
2023-04-11T20:40:14.492Z,67559.19
2023-04-11T20:42:42.876Z,67564.28
2023-04-11T20:45:11.378Z,67552.06
2023-04-11T20:47:39.188Z,67547.34
2023-04-11T20:50:07.468Z,67533.28
2023-04-11T20:52:34.728Z,67546.03
2023-04-11T20:55:03.572Z,67539.09
2023-04-11T20:57:36.691Z,67535.53
2023-04-11T21:00:14.532Z,67530.44
2023-04-11T21:02:51.414Z,67529.69
2023-04-11T21:05:20.314Z,67474.41
2023-04-11T21:07:49.287Z,67524.06
2023-04-11T21:10:24.154Z,67545.31
2023-04-11T21:12:53.424Z,67563.72
2023-04-11T21:15:21.825Z,67514.19
2023-04-11T21:17:53.585Z,67559.78
2023-04-11T21:20:23.399Z,67564.06
2023-04-11T21:22:52.911Z,67570.81
2023-04-11T21:25:23.496Z,67565.59
2023-04-11T21:27:50.566Z,67567.44
2023-04-11T21:30:17.589Z,67560.53
2023-04-11T21:32:44.645Z,67565.97
2023-04-11T21:35:13.287Z,67559.41
2023-04-11T21:37:42.983Z,67551.84
2023-04-11T21:40:10.400Z,67542.31
2023-04-11T21:42:42.178Z,67545.25
2023-04-11T21:45:12.055Z,67538.56
2023-04-11T21:47:44.744Z,67543.97
2023-04-11T21:50:11.859Z,67505.94
2023-04-11T21:52:38.842Z,67544.56
2023-04-11T21:55:08.678Z,67489.03
2023-04-11T21:57:39.226Z,67531.59
2023-04-11T22:00:08.365Z,67526.31
2023-04-11T22:02:44.349Z,67511.88
2023-04-11T22:05:12.715Z,67508.47
2023-04-11T22:07:49.214Z,67503.97
2023-04-11T22:10:23.736Z,67498.13
2023-04-11T22:12:53.990Z,67510.72
2023-04-11T22:15:23.490Z,67518.47
2023-04-11T22:17:54.450Z,67524.25
2023-04-11T22:20:21.724Z,67525.75
2023-04-11T22:22:48.666Z,67505.50
2023-04-11T22:25:18.211Z,67503.41
2023-04-11T22:27:45.631Z,67500.03
2023-04-11T22:30:14.246Z,67490.47
2023-04-11T22:32:41.284Z,67485.94
2023-04-11T22:35:09.285Z,67494.97
2023-04-11T22:37:38.224Z,67441.75
2023-04-11T22:40:10.517Z,67483.13
2023-04-11T22:42:39.259Z,67484.84
2023-04-11T22:45:08.209Z,67487.63
2023-04-11T22:47:38.297Z,67479.75
2023-04-11T22:50:06.075Z,67464.75
2023-04-11T22:52:33.010Z,67456.66
2023-04-11T22:55:00.019Z,67401.78
2023-04-11T22:57:27.725Z,67444.84
2023-04-11T22:59:54.671Z,67451.59
2023-04-11T23:02:23.816Z,67462.28
2023-04-11T23:04:52.595Z,67456.66
2023-04-11T23:07:19.567Z,67452.16
2023-04-11T23:09:47.250Z,67464.34
2023-04-11T23:12:14.188Z,67460.41
2023-04-11T23:14:41.090Z,67456.66
2023-04-11T23:17:08.107Z,67446.72
2023-04-11T23:19:36.818Z,67443.16
2023-04-11T23:22:07.174Z,67435.47
2023-04-11T23:24:34.402Z,67438.44
2023-04-11T23:27:01.777Z,67435.63
2023-04-11T23:29:30.651Z,67433.94
2023-04-11T23:31:57.600Z,67433.59
2023-04-11T23:34:25.193Z,67432.44
2023-04-11T23:36:52.814Z,67440.91
2023-04-11T23:39:23.496Z,67444.84
2023-04-11T23:41:52.045Z,67450.25
2023-04-11T23:44:24.896Z,67406.88
2023-04-11T23:46:51.780Z,67476.19
2023-04-11T23:49:18.698Z,67466.03
2023-04-11T23:51:46.489Z,67414.16
2023-04-11T23:54:14.582Z,67459.28
2023-04-11T23:56:41.587Z,67452.16
2023-04-11T23:59:12.375Z,67451.59
